createdAt,value
2018-07-04T00:03:52.708Z,58.60
2018-07-04T00:09:04.288Z,57.50
2018-07-04T00:14:15.662Z,56.70
2018-07-04T00:19:27.149Z,55.50
2018-07-04T00:24:39.038Z,55.20
2018-07-04T00:29:50.547Z,55.40
2018-07-04T00:35:02.056Z,56.00
2018-07-04T00:40:14.009Z,55.90
2018-07-04T00:45:25.667Z,55.70
2018-07-04T00:50:37.202Z,55.50
2018-07-04T00:55:48.648Z,56.10
2018-07-04T01:06:05.611Z,56.90
2018-07-04T01:11:17.024Z,57.10
2018-07-04T01:21:33.822Z,57.50
2018-07-04T01:26:45.280Z,57.50
2018-07-04T01:37:02.215Z,57.30
2018-07-04T01:42:13.977Z,57.80
2018-07-04T01:47:25.467Z,58.10
2018-07-04T01:52:36.880Z,57.90
2018-07-04T01:57:48.316Z,57.30
2018-07-04T02:02:59.644Z,54.90
2018-07-04T02:08:10.983Z,52.70
2018-07-04T02:13:22.438Z,52.40
2018-07-04T02:18:34.036Z,52.90
2018-07-04T02:23:45.431Z,53.20
2018-07-04T02:28:56.848Z,53.40
2018-07-04T02:34:08.268Z,52.50
2018-07-04T02:39:19.657Z,52.10
2018-07-04T02:44:31.047Z,52.10
2018-07-04T02:49:42.542Z,51.50
2018-07-04T02:54:54.022Z,51.20
2018-07-04T03:00:05.554Z,50.60
2018-07-04T03:05:17.353Z,50.30
2018-07-04T03:10:28.909Z,50.90
2018-07-04T03:20:45.887Z,51.60
2018-07-04T03:31:03.011Z,52.40
2018-07-04T03:36:14.565Z,52.70
2018-07-04T03:41:26.050Z,53.00
2018-07-04T03:46:37.726Z,53.40
2018-07-04T03:51:49.306Z,53.50
2018-07-04T03:57:00.670Z,53.80
2018-07-04T04:02:12.300Z,54.10
2018-07-04T04:07:24.153Z,54.00
2018-07-04T04:12:35.946Z,54.00
2018-07-04T04:17:47.458Z,54.10
2018-07-04T04:22:58.909Z,53.80
2018-07-04T04:28:10.361Z,54.40
2018-07-04T04:33:21.916Z,54.40
2018-07-04T04:38:33.303Z,55.00
2018-07-04T04:43:44.795Z,54.70
2018-07-04T04:48:56.348Z,54.50
2018-07-04T04:54:07.766Z,54.00
2018-07-04T04:59:19.220Z,53.80
2018-07-04T05:04:30.610Z,53.10
2018-07-04T05:09:42.010Z,52.10
2018-07-04T05:14:53.730Z,51.90
2018-07-04T05:20:05.092Z,51.00
2018-07-04T05:25:16.571Z,48.10
2018-07-04T05:30:28.140Z,44.30
2018-07-04T05:35:39.566Z,41.80
2018-07-04T05:45:56.632Z,37.40
2018-07-04T05:51:08.696Z,35.00
2018-07-04T06:01:26.530Z,31.90
2018-07-04T06:06:38.196Z,32.10
2018-07-04T06:16:55.623Z,30.90
2018-07-04T06:22:07.597Z,30.00
2018-07-04T06:27:19.423Z,28.40
2018-07-04T06:32:31.047Z,27.20
2018-07-04T06:37:35.612Z,26.50
2018-07-04T06:42:29.194Z,26.60
2018-07-04T06:47:22.332Z,26.40
2018-07-04T06:52:15.890Z,25.90
2018-07-04T07:02:21.564Z,27.30
2018-07-04T07:07:33.758Z,28.00
2018-07-04T07:12:45.798Z,29.00
2018-07-04T07:17:57.523Z,29.10
2018-07-04T07:23:09.225Z,28.70
2018-07-04T07:33:26.620Z,25.50
2018-07-04T07:38:38.577Z,22.80
2018-07-04T07:43:50.282Z,21.70
2018-07-04T07:49:02.186Z,20.20
2018-07-04T07:54:13.905Z,19.00
2018-07-04T07:59:25.657Z,18.40
2018-07-04T08:04:37.524Z,18.80
2018-07-04T08:09:49.188Z,19.60
2018-07-04T08:15:00.995Z,20.20
2018-07-04T08:20:12.594Z,22.30
2018-07-04T08:25:24.424Z,23.20
2018-07-04T08:35:42.285Z,23.10
2018-07-04T08:40:54.108Z,23.20
2018-07-04T08:46:05.862Z,23.90
2018-07-04T08:51:17.684Z,25.10
2018-07-04T08:56:29.565Z,26.20
2018-07-04T09:06:47.343Z,28.10
2018-07-04T09:11:59.284Z,30.10
2018-07-04T09:17:11.177Z,34.10
2018-07-04T09:22:22.853Z,38.70
2018-07-04T09:27:34.512Z,40.80
2018-07-04T09:32:46.209Z,43.80
2018-07-04T09:37:58.179Z,48.10
2018-07-04T09:43:10.078Z,51.70
2018-07-04T09:48:21.659Z,55.30
2018-07-04T09:53:33.106Z,59.30
2018-07-04T09:58:44.763Z,66.50
2018-07-04T10:03:56.684Z,70.00
2018-07-04T10:09:08.318Z,68.80
2018-07-04T10:14:20.086Z,62.40
2018-07-04T10:24:37.819Z,59.50
2018-07-04T10:29:49.641Z,59.60
2018-07-04T10:35:01.266Z,59.70
2018-07-04T10:40:12.926Z,60.20
2018-07-04T10:45:24.737Z,62.90
2018-07-04T10:55:42.310Z,61.20
2018-07-04T11:00:54.203Z,58.40
2018-07-04T11:06:06.192Z,58.80
2018-07-04T11:11:17.963Z,54.70
2018-07-04T11:16:29.736Z,51.80
2018-07-04T11:26:47.242Z,54.60
2018-07-04T11:31:58.927Z,54.30
2018-07-04T11:42:16.366Z,51.20
2018-07-04T11:47:09.496Z,49.50
2018-07-04T11:52:02.677Z,48.30
2018-07-04T11:56:55.877Z,48.10
2018-07-04T12:07:01.740Z,47.00
2018-07-04T12:11:55.032Z,46.70
2018-07-04T12:16:48.181Z,47.40
2018-07-04T12:36:21.657Z,50.30
2018-07-04T12:41:14.775Z,52.30
2018-07-04T12:51:01.584Z,55.60
2018-07-04T12:56:13.872Z,57.10
2018-07-04T13:01:25.685Z,58.40
2018-07-04T13:06:37.452Z,59.30
2018-07-04T13:11:49.234Z,59.60
2018-07-04T13:17:01.119Z,61.20
2018-07-04T13:22:12.810Z,66.10
2018-07-04T13:27:25.142Z,76.30
2018-07-04T13:32:36.575Z,81.70
2018-07-04T13:37:48.081Z,85.90
2018-07-04T13:42:59.860Z,90.20
2018-07-04T13:53:17.951Z,91.60
2018-07-04T13:58:29.863Z,92.20
2018-07-04T14:03:41.517Z,92.60
2018-07-04T14:08:53.106Z,91.50
2018-07-04T14:14:04.654Z,92.30
2018-07-04T14:19:16.442Z,91.80
2018-07-04T14:24:28.053Z,91.80
2018-07-04T14:29:39.695Z,91.30
2018-07-04T14:34:51.860Z,88.70
2018-07-04T14:40:03.882Z,85.50
2018-07-04T14:45:15.775Z,84.30
2018-07-04T14:50:29.096Z,82.20
2018-07-04T15:00:48.186Z,78.70
2018-07-04T15:06:00.388Z,77.00
2018-07-04T15:11:12.242Z,74.10
2018-07-04T15:16:24.567Z,71.70
2018-07-04T15:21:36.632Z,68.70
2018-07-04T15:26:48.372Z,67.40
2018-07-04T15:32:00.151Z,67.30
2018-07-04T15:37:12.493Z,66.90
2018-07-04T15:42:24.288Z,67.40
2018-07-04T15:47:36.035Z,68.00
2018-07-04T15:52:48.224Z,69.10
2018-07-04T15:58:00.092Z,69.80
2018-07-04T16:08:17.606Z,71.20
2018-07-04T16:13:29.394Z,72.30
2018-07-04T16:18:41.197Z,72.00
2018-07-04T16:23:52.815Z,72.40
2018-07-04T16:29:04.687Z,72.70
2018-07-04T16:34:16.733Z,73.60
2018-07-04T16:39:28.593Z,73.70
2018-07-04T16:44:40.578Z,74.50
2018-07-04T16:49:52.291Z,76.30
2018-07-04T16:55:04.027Z,79.10
2018-07-04T17:00:16.542Z,82.40
2018-07-04T17:05:28.358Z,83.30
2018-07-04T17:10:40.576Z,83.10
2018-07-04T17:15:52.148Z,81.70
2018-07-04T17:26:09.375Z,77.50
2018-07-04T17:31:21.184Z,74.50
2018-07-04T17:36:32.863Z,69.10
2018-07-04T17:41:44.606Z,68.90
2018-07-04T17:46:56.299Z,71.90
2018-07-04T17:52:08.049Z,73.10
2018-07-04T17:57:19.512Z,74.30
2018-07-04T18:02:31.222Z,74.80
2018-07-04T18:07:43.308Z,73.40
2018-07-04T18:12:55.880Z,74.30
2018-07-04T18:18:07.868Z,75.80
2018-07-04T18:23:20.309Z,78.10
2018-07-04T18:28:32.362Z,83.50
2018-07-04T18:33:44.064Z,93.10
2018-07-04T18:38:56.044Z,94.70
2018-07-04T18:44:07.823Z,96.10
2018-07-04T18:49:19.566Z,97.10
2018-07-04T18:54:31.207Z,98.70
2018-07-04T18:59:43.019Z,99.20
2018-07-04T19:10:00.206Z,99.90
2018-07-04T19:25:53.261Z,99.90
2018-07-04T19:31:06.192Z,99.90
2018-07-04T19:36:21.578Z,99.90
2018-07-04T19:41:37.227Z,99.90
2018-07-04T19:52:07.482Z,99.90
2018-07-04T19:57:29.490Z,99.90
2018-07-04T20:02:55.867Z,99.90
2018-07-04T20:08:10.847Z,99.90
2018-07-04T20:13:39.162Z,99.90
2018-07-04T20:19:07.381Z,99.90
2018-07-04T20:24:22.936Z,99.90
2018-07-04T20:29:38.706Z,99.90
2018-07-04T20:35:01.281Z,99.90
2018-07-04T20:40:14.971Z,99.90
2018-07-04T20:45:26.776Z,99.90
2018-07-04T20:50:38.538Z,99.90
2018-07-04T20:55:50.351Z,99.90
2018-07-04T21:01:02.172Z,99.90
2018-07-04T21:06:13.793Z,99.90
2018-07-04T21:11:25.372Z,99.90
2018-07-04T21:16:37.019Z,99.90
2018-07-04T21:26:54.290Z,99.90
2018-07-04T21:32:05.663Z,99.90
2018-07-04T21:37:17.053Z,99.90
2018-07-04T21:42:28.475Z,99.90
2018-07-04T21:47:40.054Z,99.90
2018-07-04T21:52:53.940Z,99.90
2018-07-04T21:58:05.882Z,99.90
2018-07-04T22:03:17.707Z,99.90
2018-07-04T22:08:29.176Z,99.90
2018-07-04T22:13:40.742Z,99.90
2018-07-04T22:18:52.283Z,99.90
2018-07-04T22:24:03.877Z,99.90
2018-07-04T22:29:15.492Z,99.90
2018-07-04T22:34:27.096Z,99.90
2018-07-04T22:39:39.216Z,99.90
2018-07-04T22:44:50.908Z,99.90
2018-07-04T22:50:02.364Z,99.90
2018-07-04T22:55:13.994Z,99.90
2018-07-04T23:00:25.624Z,99.90
2018-07-04T23:05:37.280Z,99.90
2018-07-04T23:10:48.901Z,99.90
2018-07-04T23:15:53.932Z,99.90
2018-07-04T23:21:05.496Z,99.90
2018-07-04T23:26:17.152Z,99.90
2018-07-04T23:31:28.731Z,99.90
2018-07-04T23:36:40.116Z,99.90
2018-07-04T23:41:52.919Z,99.90
2018-07-04T23:47:04.690Z,99.90
2018-07-04T23:52:16.142Z,99.90
2018-07-04T23:57:27.543Z,99.90
